Carlinville, IL (62626)

4:52 PM CDT op 25 augustus 2016 (GMT -0500)
Carlinville Firehouse | | Change Station

Hoogte 623 ft 39.28 °N, 89.88 °W | Updated 6 seconds ago

Scattered Clouds
Licht bewolkt
89.0 °F
Voelt als 101 °F
N
0.0
Wind Variabel Wind van zuid
Gusts 0.0 mijl/u

Vandaag
Hoog -- | Laag -- °F
--% Kans op neerslag
Gisteren
Hoog -- | Laag -- °F
Precip. -- inches
Druk 30.04 inches
Zicht 10.0 mijlen
Wolken Licht bewolkt 7500 ft
Licht bewolkt 9000 ft
Licht bewolkt 12000 ft
Warmteindex 101 °F
Dauwpunt 77 °F
Vochtigheid 67%
Neerslag 0.00 inches
Dikte sneeuw Niet beschikbaar.
6:22 AM 7:40 PM
Laatste kwartier, 41% visible
METAR K3LF 252135Z AUTO 24003KT 10SM SCT075 SCT090 SCT120 33/23 A3004 RMK AO2 T03250225
Druk 30.04 inches
Zicht 10.0 mijlen
Wolken Licht bewolkt 7500 ft
Licht bewolkt 9000 ft
Licht bewolkt 12000 ft
Warmteindex 101 °F
Dauwpunt 77 °F
Vochtigheid 67%
Neerslag 0.00 inches
Dikte sneeuw Niet beschikbaar.
6:22 AM 7:40 PM
Laatste kwartier, 41% visible
METAR K3LF 252135Z AUTO 24003KT 10SM SCT075 SCT090 SCT120 33/23 A3004 RMK AO2 T03250225
A tropical disturbance pushing toward the Bahamas, is expected to develop into a tropical depression or storm, and will likely target Florida and the Gulf Coast this weekend into next week.

Right now, the disturbance remains a broad area of low pressure pushing through the Dominican Republic and Haiti, headed toward the southeast Bahamas. Rainfall totals over 3 inches (with locally higher amounts) are expected in Hispañiola, particularly over elevated terrain.

10-Day Weather Forecast

Almanac

Astronomie

Aug. 25, 2016 Opkomst Ondergang
Werkelijke tijd
Burgerlijke schemering
Nautische schemering
Astronomische schemering
Maan
Golflengte van het zichtbare licht
Daglengte
Tomorrow will be .
, % of the Moon is Illuminated

Extremen vandaag

State Highs State Lows

Community

WunderPhotos

Upload Photos

1,934,947 foto’s ge-upload!

WunderBlog® & News

Nearby

Luchtkwaliteit

  Luchtkwaliteit LK-index Verontreinigende stof
Not available.

Dikte sneeuw

Station Depth Geometrische hoogte

Aardbevingen

Stad Distance Mag. Time & Date
Minimum magnitude displayed is 2.5.

Watertemperatuur langs de kust

Plaats Temperatuur

Stations

Nabije weerstations

Locatie station Temp. Gevoelstemperatuur Dauwpunt Vochtigheid Wind Precip. Hoogte Geactualiseerd Type
                   

Watches & Warnings

There are currently no watches in effect.